createdAt,value
2023-02-11T00:00:00.446Z,9.07
2023-02-11T00:03:01.907Z,9.68
2023-02-11T00:06:03.286Z,9.88
2023-02-11T00:09:04.607Z,10.30
2023-02-11T00:12:05.912Z,8.98
2023-02-11T00:15:07.277Z,9.87
2023-02-11T00:18:08.560Z,9.32
2023-02-11T00:21:09.850Z,10.05
2023-02-11T00:24:11.142Z,9.85
2023-02-11T00:27:12.443Z,9.57
2023-02-11T00:30:13.710Z,9.73
2023-02-11T00:33:15.003Z,9.02
2023-02-11T00:36:16.283Z,9.95
2023-02-11T00:39:17.569Z,9.43
2023-02-11T00:42:18.843Z,9.68
2023-02-11T00:45:20.152Z,9.43
2023-02-11T00:48:21.437Z,8.82
2023-02-11T00:51:22.725Z,10.07
2023-02-11T00:54:24.015Z,9.63
2023-02-11T00:57:25.299Z,9.82
2023-02-11T01:00:26.734Z,10.07
2023-02-11T01:03:28.017Z,9.77
2023-02-11T01:06:29.329Z,9.25
2023-02-11T01:09:30.616Z,9.07
2023-02-11T01:12:33.984Z,9.88
2023-02-11T01:15:36.565Z,10.10
2023-02-11T01:18:38.097Z,9.95
2023-02-11T01:21:39.374Z,9.85
2023-02-11T01:24:40.677Z,9.77
2023-02-11T01:27:41.949Z,10.23
2023-02-11T01:30:43.276Z,9.17
2023-02-11T01:33:44.589Z,9.07
2023-02-11T01:36:46.015Z,9.55
2023-02-11T01:39:47.308Z,9.40
2023-02-11T01:42:50.948Z,8.80
2023-02-11T01:45:52.793Z,9.70
2023-02-11T01:48:54.343Z,9.77
2023-02-11T01:51:55.639Z,9.43
2023-02-11T01:54:56.927Z,10.00
2023-02-11T01:57:58.256Z,9.90
2023-02-11T02:00:59.534Z,9.53
2023-02-11T02:04:00.892Z,9.50
2023-02-11T02:07:02.206Z,10.68
2023-02-11T02:10:03.490Z,9.63
2023-02-11T02:13:04.765Z,10.77
2023-02-11T02:16:09.237Z,9.30
2023-02-11T02:19:11.026Z,9.40
2023-02-11T02:22:12.319Z,10.65
2023-02-11T02:25:13.601Z,10.10
2023-02-11T02:28:15.044Z,9.95
2023-02-11T02:31:16.420Z,10.23
2023-02-11T02:34:17.724Z,10.35
2023-02-11T02:37:18.994Z,10.10
2023-02-11T02:40:20.280Z,10.02
2023-02-11T02:43:21.587Z,9.80
2023-02-11T02:46:22.863Z,9.93
2023-02-11T02:49:24.197Z,10.88
2023-02-11T02:52:25.537Z,10.25
2023-02-11T02:55:26.821Z,9.90
2023-02-11T02:58:28.171Z,10.07
2023-02-11T03:01:29.463Z,10.80
2023-02-11T03:04:30.955Z,10.25
2023-02-11T03:07:32.262Z,10.57
2023-02-11T03:10:33.562Z,10.63
2023-02-11T03:13:34.873Z,10.20
2023-02-11T03:16:36.205Z,10.87
2023-02-11T03:19:37.518Z,10.43
2023-02-11T03:22:38.825Z,11.18
2023-02-11T03:25:40.115Z,11.13
2023-02-11T03:28:41.427Z,11.10
2023-02-11T03:31:42.922Z,10.17
2023-02-11T03:34:44.273Z,10.73
2023-02-11T03:37:45.541Z,11.05
2023-02-11T03:40:46.831Z,10.95
2023-02-11T03:43:48.127Z,11.35
2023-02-11T03:46:49.409Z,11.43
2023-02-11T03:49:50.726Z,9.70
2023-02-11T03:52:52.012Z,11.10
2023-02-11T03:55:53.295Z,10.38
2023-02-11T03:58:54.592Z,10.68
2023-02-11T04:01:55.863Z,10.97
2023-02-11T04:04:57.142Z,10.73
2023-02-11T04:07:58.438Z,11.23
2023-02-11T04:10:59.716Z,11.13
2023-02-11T04:14:01.001Z,10.77
2023-02-11T04:17:02.284Z,10.30
2023-02-11T04:20:03.563Z,11.00
2023-02-11T04:23:04.869Z,11.15
2023-02-11T04:26:06.165Z,11.35
2023-02-11T04:29:07.463Z,10.70
2023-02-11T04:32:08.818Z,9.63
2023-02-11T04:35:10.146Z,10.90
2023-02-11T04:38:11.457Z,10.65
2023-02-11T04:41:12.743Z,10.73
2023-02-11T04:44:14.045Z,10.95
2023-02-11T04:47:15.340Z,10.80
2023-02-11T04:50:16.659Z,11.88
2023-02-11T04:53:18.003Z,11.40
2023-02-11T04:56:19.297Z,12.38
2023-02-11T04:59:20.592Z,11.07
2023-02-11T05:02:21.879Z,12.67
2023-02-11T05:05:23.166Z,12.40
2023-02-11T05:08:24.500Z,12.88
2023-02-11T05:11:25.912Z,13.07
2023-02-11T05:14:27.222Z,13.50
2023-02-11T05:17:28.523Z,13.67
2023-02-11T05:20:29.822Z,14.13
2023-02-11T05:23:31.105Z,14.25
2023-02-11T05:26:32.394Z,14.75
2023-02-11T05:29:33.678Z,15.95
2023-02-11T05:32:34.978Z,14.27
2023-02-11T05:35:36.263Z,14.23
2023-02-11T05:38:37.570Z,14.77
2023-02-11T05:41:38.869Z,15.00
2023-02-11T05:44:40.178Z,15.57
2023-02-11T05:47:41.481Z,15.07
2023-02-11T05:50:42.771Z,14.48
2023-02-11T05:53:44.051Z,16.00
2023-02-11T05:56:45.344Z,15.82
2023-02-11T05:59:46.643Z,16.60
2023-02-11T06:02:47.978Z,15.57
2023-02-11T06:05:49.672Z,16.10
2023-02-11T06:08:51.170Z,16.95
2023-02-11T06:11:52.460Z,17.30
2023-02-11T06:14:53.752Z,17.40
2023-02-11T06:17:55.094Z,16.53
2023-02-11T06:20:56.428Z,16.92
2023-02-11T06:23:57.750Z,17.95
2023-02-11T06:26:59.058Z,17.70
2023-02-11T06:30:00.337Z,19.00
2023-02-11T06:33:01.630Z,17.83
2023-02-11T06:36:02.911Z,18.83
2023-02-11T06:39:04.238Z,19.88
2023-02-11T06:42:07.917Z,18.83
2023-02-11T06:45:09.330Z,19.00
2023-02-11T06:48:10.645Z,19.37
2023-02-11T06:51:11.951Z,20.67
2023-02-11T06:54:13.224Z,19.95
2023-02-11T06:57:14.573Z,21.70
2023-02-11T07:00:15.862Z,20.13
2023-02-11T07:03:17.270Z,20.40
2023-02-11T07:06:18.594Z,20.48
2023-02-11T07:09:19.939Z,21.25
2023-02-11T07:12:21.207Z,21.75
2023-02-11T07:15:22.507Z,21.38
2023-02-11T07:18:23.788Z,22.27
2023-02-11T07:21:25.299Z,22.00
2023-02-11T07:24:26.612Z,22.40
2023-02-11T07:27:27.902Z,21.05
2023-02-11T07:30:29.286Z,20.60
2023-02-11T07:33:30.615Z,20.73
2023-02-11T07:36:32.035Z,20.33
2023-02-11T07:39:33.418Z,20.92
2023-02-11T07:42:34.714Z,21.63
2023-02-11T07:45:36.008Z,21.38
2023-02-11T07:48:37.409Z,20.00
2023-02-11T07:51:38.693Z,20.85
2023-02-11T07:54:39.986Z,19.98
2023-02-11T07:57:41.305Z,21.77
2023-02-11T08:00:42.634Z,19.85
2023-02-11T08:03:43.931Z,19.67
2023-02-11T08:06:45.226Z,21.30
2023-02-11T08:09:46.502Z,21.30
2023-02-11T08:12:47.797Z,20.58
2023-02-11T08:15:49.436Z,19.67
2023-02-11T08:18:50.906Z,19.27
2023-02-11T08:21:52.200Z,19.83
2023-02-11T08:24:53.512Z,20.27
2023-02-11T08:27:54.828Z,19.75
2023-02-11T08:30:56.242Z,20.33
2023-02-11T08:33:57.558Z,19.87
2023-02-11T08:36:58.853Z,19.63
2023-02-11T08:40:00.143Z,20.50
2023-02-11T08:43:01.438Z,20.58
2023-02-11T08:46:02.771Z,20.70
2023-02-11T08:49:04.162Z,19.93
2023-02-11T08:52:05.671Z,19.90
2023-02-11T08:55:06.972Z,20.63
2023-02-11T08:58:08.294Z,19.92
2023-02-11T09:01:09.598Z,20.48
2023-02-11T09:04:10.918Z,20.03
2023-02-11T09:07:12.204Z,19.90
2023-02-11T09:10:13.514Z,19.58
2023-02-11T09:13:14.800Z,19.05
2023-02-11T09:16:16.175Z,20.00
2023-02-11T09:19:17.472Z,18.83
2023-02-11T09:22:18.764Z,18.42
2023-02-11T09:25:20.058Z,19.00
2023-02-11T09:28:21.478Z,18.25
2023-02-11T09:31:22.867Z,19.10
2023-02-11T09:34:24.233Z,18.00
2023-02-11T09:37:25.579Z,18.20
2023-02-11T09:40:26.869Z,17.45
2023-02-11T09:43:28.150Z,17.88
2023-02-11T09:46:29.522Z,17.02
2023-02-11T09:49:30.860Z,16.90
2023-02-11T09:52:32.148Z,18.05
2023-02-11T09:55:33.453Z,17.63
2023-02-11T09:58:34.783Z,17.30
2023-02-11T10:01:36.197Z,17.13
2023-02-11T10:04:37.587Z,17.10
2023-02-11T10:07:38.887Z,17.52
2023-02-11T10:10:40.186Z,16.92
2023-02-11T10:13:42.629Z,16.55
2023-02-11T10:16:44.043Z,16.98
2023-02-11T10:19:45.344Z,16.10
2023-02-11T10:22:46.640Z,16.15
2023-02-11T10:25:47.939Z,16.17
2023-02-11T10:28:49.239Z,15.25
2023-02-11T10:31:50.614Z,16.33
2023-02-11T10:34:51.976Z,16.37
2023-02-11T10:37:53.270Z,15.73
2023-02-11T10:40:54.570Z,16.95
2023-02-11T10:43:57.285Z,16.00
2023-02-11T10:46:58.573Z,15.30
2023-02-11T10:49:59.864Z,16.50
2023-02-11T10:53:01.216Z,16.60
2023-02-11T10:56:02.506Z,16.33
2023-02-11T10:59:03.821Z,15.40
2023-02-11T11:02:05.149Z,15.82
2023-02-11T11:05:06.605Z,15.93
2023-02-11T11:08:07.984Z,16.15
2023-02-11T11:11:09.280Z,16.08
2023-02-11T11:14:10.673Z,16.08
2023-02-11T11:17:12.130Z,15.77
2023-02-11T11:20:13.402Z,14.93
2023-02-11T11:23:14.700Z,14.75
2023-02-11T11:26:15.980Z,16.10
2023-02-11T11:29:17.286Z,16.35
2023-02-11T11:32:20.551Z,14.75
2023-02-11T11:35:22.099Z,14.53
2023-02-11T11:38:23.579Z,15.57
2023-02-11T11:41:24.902Z,16.30
2023-02-11T11:44:26.211Z,14.75
2023-02-11T11:47:27.486Z,16.38
2023-02-11T11:50:28.955Z,15.67
2023-02-11T11:53:30.285Z,14.55
2023-02-11T11:56:31.566Z,15.05
2023-02-11T11:59:32.867Z,14.98
2023-02-11T12:02:34.192Z,14.77
2023-02-11T12:05:35.482Z,15.23
2023-02-11T12:08:36.790Z,15.65
2023-02-11T12:11:38.067Z,15.15
2023-02-11T12:14:39.773Z,14.70
2023-02-11T12:17:41.100Z,14.20
2023-02-11T12:20:42.537Z,14.77
2023-02-11T12:23:43.855Z,14.80
2023-02-11T12:26:45.183Z,14.60
2023-02-11T12:29:46.462Z,14.55
2023-02-11T12:32:47.787Z,15.02
2023-02-11T12:35:49.408Z,14.10
2023-02-11T12:38:50.788Z,14.68
2023-02-11T12:41:52.127Z,14.88
2023-02-11T12:44:53.407Z,13.82
2023-02-11T12:47:54.704Z,14.88
2023-02-11T12:50:55.994Z,14.70
2023-02-11T12:53:57.301Z,13.77
2023-02-11T12:56:58.913Z,14.65
2023-02-11T13:00:00.537Z,14.18
2023-02-11T13:03:01.923Z,14.50
2023-02-11T13:06:03.224Z,13.97
2023-02-11T13:09:04.998Z,14.93
2023-02-11T13:12:06.356Z,14.70
2023-02-11T13:15:07.678Z,13.98
2023-02-11T13:18:09.301Z,13.70
2023-02-11T13:21:10.688Z,12.80
2023-02-11T13:24:12.120Z,14.23
2023-02-11T13:27:13.509Z,13.77
2023-02-11T13:30:15.104Z,13.07
2023-02-11T13:33:16.464Z,14.73
2023-02-11T13:36:17.762Z,13.47
2023-02-11T13:39:19.526Z,13.23
2023-02-11T13:42:20.914Z,14.02
2023-02-11T13:45:22.204Z,13.73
2023-02-11T13:48:23.497Z,13.20
2023-02-11T13:51:27.153Z,13.50
2023-02-11T13:54:28.524Z,14.15
2023-02-11T13:57:29.854Z,13.45
2023-02-11T14:00:31.292Z,12.98
2023-02-11T14:03:33.025Z,13.50
2023-02-11T14:06:34.635Z,13.23
2023-02-11T14:09:36.006Z,13.50
2023-02-11T14:12:37.574Z,13.48
2023-02-11T14:15:39.365Z,13.70
2023-02-11T14:18:40.886Z,13.38
2023-02-11T14:21:42.568Z,12.97
2023-02-11T14:24:44.755Z,12.48
2023-02-11T14:27:46.109Z,12.65
2023-02-11T14:30:47.919Z,12.60
2023-02-11T14:33:49.320Z,13.63
2023-02-11T14:36:50.759Z,11.87
2023-02-11T14:39:52.479Z,12.73
2023-02-11T14:42:53.852Z,12.85
2023-02-11T14:45:55.506Z,12.25
2023-02-11T14:48:57.811Z,11.75
2023-02-11T14:51:59.778Z,11.97
2023-02-11T14:55:01.392Z,13.55
2023-02-11T14:58:03.157Z,12.52
2023-02-11T15:01:04.649Z,12.80
2023-02-11T15:04:06.149Z,11.85
2023-02-11T15:07:07.854Z,12.67
2023-02-11T15:10:09.357Z,12.18
2023-02-11T15:13:10.752Z,13.20
2023-02-11T15:16:12.438Z,12.55
2023-02-11T15:19:14.127Z,13.43
2023-02-11T15:22:15.909Z,12.80
2023-02-11T15:25:18.264Z,12.85
2023-02-11T15:28:19.671Z,13.80
2023-02-11T15:31:21.207Z,12.43
2023-02-11T15:34:23.527Z,12.75
2023-02-11T15:37:28.272Z,13.57
2023-02-11T15:40:29.969Z,13.07
2023-02-11T15:43:31.348Z,12.38
2023-02-11T15:46:33.061Z,12.38
2023-02-11T15:49:34.824Z,13.50
2023-02-11T15:52:36.570Z,11.77
2023-02-11T15:55:39.351Z,12.73
2023-02-11T15:58:41.081Z,13.75
2023-02-11T16:01:42.900Z,13.02
2023-02-11T16:04:45.658Z,12.82
2023-02-11T16:07:47.470Z,13.83
2023-02-11T16:10:50.367Z,12.95
2023-02-11T16:13:52.299Z,13.93
2023-02-11T16:16:54.091Z,13.02
2023-02-11T16:19:55.793Z,12.63
2023-02-11T16:22:57.543Z,12.90
2023-02-11T16:25:59.560Z,12.38
2023-02-11T16:29:01.300Z,13.00
2023-02-11T16:32:03.092Z,13.75
2023-02-11T16:35:04.959Z,13.40
2023-02-11T16:38:06.692Z,13.73
2023-02-11T16:41:08.541Z,14.07
2023-02-11T16:44:11.521Z,13.55
2023-02-11T16:47:13.440Z,14.55
2023-02-11T16:50:15.199Z,14.57
2023-02-11T16:53:16.967Z,14.57
2023-02-11T16:56:18.600Z,14.07
2023-02-11T16:59:20.687Z,14.38
2023-02-11T17:02:23.985Z,13.88
2023-02-11T17:05:25.933Z,14.10
2023-02-11T17:08:27.717Z,13.93
2023-02-11T17:11:29.385Z,14.45
2023-02-11T17:14:31.198Z,14.95
2023-02-11T17:17:32.975Z,14.43
2023-02-11T17:20:34.362Z,14.50
2023-02-11T17:23:36.101Z,13.70
2023-02-11T17:26:38.035Z,13.55
2023-02-11T17:29:39.874Z,14.43
2023-02-11T17:32:42.731Z,14.27
2023-02-11T17:35:44.278Z,14.88
2023-02-11T17:38:45.614Z,14.70
2023-02-11T17:41:47.352Z,13.35
2023-02-11T17:44:49.147Z,15.43
2023-02-11T17:47:50.889Z,13.57
2023-02-11T17:50:52.690Z,14.10
2023-02-11T17:53:54.448Z,13.77
2023-02-11T17:56:58.190Z,14.73
2023-02-11T18:00:00.338Z,13.93
2023-02-11T18:03:02.104Z,14.18
2023-02-11T18:06:03.921Z,14.85
2023-02-11T18:09:05.744Z,14.23
2023-02-11T18:12:08.063Z,13.95
2023-02-11T18:15:09.746Z,14.45
2023-02-11T18:18:11.609Z,14.23
2023-02-11T18:21:13.433Z,13.80
2023-02-11T18:24:15.278Z,13.80
2023-02-11T18:27:16.654Z,14.93
2023-02-11T18:30:29.803Z,15.40
2023-02-11T18:33:31.746Z,15.05
2023-02-11T18:36:33.525Z,14.68
2023-02-11T18:39:35.289Z,14.83
2023-02-11T18:42:37.149Z,14.38
2023-02-11T18:45:41.762Z,15.38
2023-02-11T18:48:43.735Z,15.05
2023-02-11T18:51:45.565Z,14.35
2023-02-11T18:54:46.970Z,15.53
2023-02-11T18:57:48.266Z,15.70
2023-02-11T19:00:50.092Z,15.45
2023-02-11T19:03:51.965Z,15.45
2023-02-11T19:06:53.753Z,14.88
2023-02-11T19:09:55.695Z,14.20
2023-02-11T19:12:57.494Z,15.10
2023-02-11T19:15:58.893Z,15.73
2023-02-11T19:19:00.547Z,15.30
2023-02-11T19:22:02.412Z,15.75
2023-02-11T19:25:05.287Z,15.60
2023-02-11T19:28:07.137Z,15.85
2023-02-11T19:31:09.328Z,15.57
2023-02-11T19:34:10.789Z,15.27
2023-02-11T19:37:12.668Z,15.48
2023-02-11T19:40:14.631Z,15.17
2023-02-11T19:43:16.578Z,14.98
2023-02-11T19:46:18.833Z,16.65
2023-02-11T19:49:20.780Z,16.05
2023-02-11T19:52:22.645Z,16.75
2023-02-11T19:55:24.016Z,15.50
2023-02-11T19:58:25.770Z,15.73
2023-02-11T20:01:27.224Z,16.27
2023-02-11T20:04:28.559Z,16.10
2023-02-11T20:07:30.260Z,16.08
2023-02-11T20:10:32.150Z,15.67
2023-02-11T20:13:33.532Z,16.20
2023-02-11T20:16:47.569Z,15.40
2023-02-11T20:19:50.312Z,15.95
2023-02-11T20:22:52.063Z,15.95
2023-02-11T20:25:54.263Z,16.60
2023-02-11T20:28:56.832Z,16.02
2023-02-11T20:31:59.828Z,15.82
2023-02-11T20:35:01.919Z,15.60
2023-02-11T20:38:03.716Z,15.02
2023-02-11T20:41:05.497Z,16.30
2023-02-11T20:44:07.414Z,15.57
2023-02-11T20:47:08.953Z,15.15
2023-02-11T20:50:10.628Z,16.05
2023-02-11T20:53:12.487Z,15.68
2023-02-11T20:56:14.775Z,15.53
2023-02-11T20:59:16.618Z,15.15
2023-02-11T21:02:18.581Z,16.00
2023-02-11T21:05:20.411Z,15.57
2023-02-11T21:08:22.231Z,15.27
2023-02-11T21:11:24.125Z,15.33
2023-02-11T21:14:25.973Z,13.68
2023-02-11T21:17:28.739Z,14.57
2023-02-11T21:20:30.106Z,14.88
2023-02-11T21:23:31.801Z,15.50
2023-02-11T21:26:33.525Z,14.77
2023-02-11T21:29:43.033Z,14.27
2023-02-11T21:32:51.126Z,15.10
2023-02-11T21:35:53.305Z,15.07
2023-02-11T21:38:55.045Z,14.50
2023-02-11T21:41:56.706Z,15.50
2023-02-11T21:45:01.099Z,15.00
2023-02-11T21:48:03.343Z,15.15
2023-02-11T21:51:04.717Z,15.95
2023-02-11T21:54:06.232Z,16.00
2023-02-11T21:57:07.798Z,16.60
2023-02-11T22:00:09.114Z,16.27
2023-02-11T22:03:10.406Z,17.17
2023-02-11T22:06:11.721Z,16.92
2023-02-11T22:09:13.022Z,16.30
2023-02-11T22:12:14.374Z,16.83
2023-02-11T22:15:18.344Z,17.13
2023-02-11T22:18:19.693Z,16.88
2023-02-11T22:21:20.964Z,16.90
2023-02-11T22:24:22.483Z,17.48
2023-02-11T22:27:23.784Z,16.30
2023-02-11T22:30:25.083Z,17.58
2023-02-11T22:33:26.565Z,16.48
2023-02-11T22:36:27.886Z,17.35
2023-02-11T22:39:29.196Z,16.63
2023-02-11T22:42:30.481Z,17.33
2023-02-11T22:45:31.870Z,16.60
2023-02-11T22:48:33.186Z,17.33
2023-02-11T22:51:34.469Z,15.85
2023-02-11T22:54:35.768Z,16.52
2023-02-11T22:57:37.075Z,17.20
2023-02-11T23:00:38.388Z,16.83
2023-02-11T23:03:39.669Z,16.67
2023-02-11T23:06:40.977Z,17.02
2023-02-11T23:09:42.275Z,16.27
2023-02-11T23:12:43.651Z,17.07
2023-02-11T23:15:44.940Z,17.42
2023-02-11T23:18:46.252Z,17.60
2023-02-11T23:21:47.534Z,18.02
2023-02-11T23:24:48.853Z,18.02
2023-02-11T23:27:50.341Z,17.57
2023-02-11T23:30:51.652Z,18.20
2023-02-11T23:33:52.953Z,18.58
2023-02-11T23:36:54.258Z,17.35
2023-02-11T23:39:55.612Z,19.35
2023-02-11T23:42:57.062Z,18.37
2023-02-11T23:45:58.427Z,17.30
2023-02-11T23:48:59.825Z,18.80
2023-02-11T23:52:01.087Z,18.33
2023-02-11T23:55:02.365Z,19.58
2023-02-11T23:58:03.646Z,18.07
